Alle Angaben ohne Gewähr!
Bitte informieren Sie sich zusätzlich über offizielle Wetter-Stellen wie z.B. http://www.flug-wetter.at.

L O X Z


LOXZ 211620Z 25016KT 7000 -SHSN FEW030SC BKN040SC 01/M04 Q1011 NOSIG
LOXZ 211550Z 24015KT 15KM FEW030SC BKN050SC 01/M04 Q1010 NOSIG
LOXZ 211520Z 25012KT 20KM FEW030SC SCT050SC 01/M04 Q1009 NOSIG
LOXZ 211450Z 24011KT 20KM FEW050SC SCT070SC 03/M05 Q1009 NOSIG

TAF LOXZ 211115Z 2112/2121 28012G25KT 9999 FEW050 SCT060
  TEMPO 2112/2116 -SHSN FEW020 BKN040

L O W K


LOWK 211620Z 33008KT 300V360 9999 FEW060 04/M09 Q1012 R10L/19//95 NOSIG
LOWK 211550Z 34009KT 9999 FEW060 04/M08 Q1011 R10L/19//95 NOSIG
LOWK 211520Z VRB03KT 9999 FEW060 04/M06 Q1010 R10L/19//95 NOSIG
LOWK 211450Z 25005KT 210V330 9999 FEW040 04/M06 Q1010 R10L/19//95 NOSIG

TAF LOWK 211115Z 2112/2212 30004KT 9999 FEW060 TX04/2112Z TNM05/2206Z
  TEMPO 2112/2117 35020G30KT FEW060 SCT070
  TEMPO 2205/2210 -SHSN FEW050 BKN080

L O W G


LOWG 211620Z 36009KT CAVOK 02/M04 Q1010 R17/19//95 NOSIG
LOWG 211550Z 35011KT 9999 FEW070 03/M04 Q1010 R17/19//95 NOSIG
LOWG 211520Z 34007KT 9999 FEW070 05/M04 Q1009 R17/19//95 NOSIG
LOWG 211450Z 36010KT 9999 SCT070 04/M03 Q1009 R17/19//95 NOSIG

TAF LOWG 211115Z 2112/2212 15004KT 9999 SCT070 TX05/2113Z TNM02/2202Z
  TEMPO 2112/2120 34010KT
  PROB40
  TEMPO 2113/2119 35020G30KT
  BECMG 2203/2206 SCT060 BKN100
  PROB30
  TEMPO 2206/2210 6000 -SN FEW040 BKN060